< < Back
Terminal Aerodrome Forecast


Current Version              Previous Versions:   1  2  3  4  5  6  7  8  9  

Terminal Aerodrome Forecast

512
FTUS42 KMLB 292333
TAFMCO
TAF
KMCO 292333Z 3000/3024 17006KT P6SM VCSH FEW008 SCT030 BKN250
     FM300300 21004KT P6SM SCT035 SCT080
     FM301400 26008KT P6SM VCSH SCT025 SCT150 BKN250=

Latest METAR

726
SAUS70 KWBC 300800 RRG
MTRMCO
METAR KMCO 300753Z 21008KT 10SM FEW025 FEW050 BKN250 24/23 A3007 RMK AO2
SLP181 T02440233


USA.gov is the U.S. government's official web portal to all federal, state and local government web resources and services.